Time;durP1;ratioP1;P1;durP2;ratioP2;P2;SDS_P1;SDS_P2;PMS_P1;PMS_P2;Temp;Humidity;BMP_temperature;BMP_pressure;BME280_temperature;BME280_humidity;BME280_pressure;Samples;Min_cycle;Max_cycle;Signal;HPM_P1;HPM_P2
2023/10/26 00:00:13;;;;;;;0.50;0.50;;;;;;;9.15;100.00;95155.28;29396;213;63005;-58
2023/10/26 00:00:45;;;;;;;0.50;0.50;;;;;;;9.14;100.00;95162.63;29396;207;63009;-70
2023/10/26 00:01:16;;;;;;;0.50;0.50;;;;;;;9.14;100.00;95165.31;29396;305;63005;-69
2023/10/26 00:01:47;;;;;;;0.50;0.50;;;;;;;9.13;100.00;95163.72;29396;213;63022;-69
2023/10/26 00:02:19;;;;;;;0.50;0.50;;;;;;;9.08;100.00;95166.63;29396;213;63007;-69
2023/10/26 00:02:50;;;;;;;0.50;0.50;;;;;;;9.06;100.00;95163.44;29396;218;63009;-70
2023/10/26 00:03:21;;;;;;;0.50;0.50;;;;;;;9.07;100.00;95170.44;29396;228;63004;-58
2023/10/26 00:03:52;;;;;;;0.50;0.50;;;;;;;9.07;100.00;95170.44;29396;227;63009;-58
2023/10/26 00:04:23;;;;;;;0.50;0.50;;;;;;;9.09;100.00;95162.78;29396;260;63004;-72
2023/10/26 00:04:55;;;;;;;0.50;0.50;;;;;;;9.13;100.00;95162.94;29395;230;64013;-70
2023/10/26 00:05:28;;;;;;;0.50;0.50;;;;;;;9.11;100.00;95157.84;29396;230;63004;-69
2023/10/26 00:06:00;;;;;;;0.50;0.50;;;;;;;9.12;100.00;95164.06;29396;265;63008;-58
2023/10/26 00:06:31;;;;;;;0.50;0.50;;;;;;;9.10;100.00;95164.38;29396;202;63004;-68
2023/10/26 00:07:04;;;;;;;0.50;0.50;;;;;;;9.11;100.00;95162.47;29396;372;63009;-70
2023/10/26 00:07:38;;;;;;;0.50;0.50;;;;;;;9.21;100.00;95164.81;29396;236;63005;-57
2023/10/26 00:08:10;;;;;;;0.50;0.50;;;;;;;9.24;100.00;95164.16;29396;247;63019;-58
2023/10/26 00:08:41;;;;;;;0.50;0.50;;;;;;;9.25;100.00;95166.56;29396;220;63005;-57
2023/10/26 00:09:12;;;;;;;0.50;0.50;;;;;;;9.25;100.00;95166.56;29396;225;63009;-58
2023/10/26 00:09:43;;;;;;;0.50;0.50;;;;;;;9.23;100.00;95168.00;29396;223;63018;-58
2023/10/26 00:10:15;;;;;;;0.50;0.50;;;;;;;9.19;100.00;95172.47;29395;223;64013;-57
2023/10/26 00:10:47;;;;;;;0.55;0.55;;;;;;;9.21;100.00;95162.13;29396;218;63004;-71
2023/10/26 00:11:18;;;;;;;0.50;0.50;;;;;;;9.22;100.00;95167.19;29396;202;63019;-59
2023/10/26 00:11:50;;;;;;;0.50;0.50;;;;;;;9.22;100.00;95166.41;29396;199;63004;-69
2023/10/26 00:12:21;;;;;;;0.50;0.50;;;;;;;9.15;100.00;95164.19;29396;213;63009;-58
2023/10/26 00:12:54;;;;;;;0.50;0.50;;;;;;;9.17;100.00;95164.66;29396;270;63004;-69
2023/10/26 00:13:26;;;;;;;0.50;0.50;;;;;;;9.19;100.00;95167.84;29396;224;63008;-58
2023/10/26 00:13:57;;;;;;;0.50;0.50;;;;;;;9.18;100.00;95165.47;29396;245;63004;-58
2023/10/26 00:14:28;;;;;;;0.50;0.50;;;;;;;9.22;100.00;95166.41;29396;212;63009;-58
2023/10/26 00:15:00;;;;;;;0.50;0.50;;;;;;;9.25;100.00;95171.16;29396;198;63005;-70
2023/10/26 00:15:35;;;;;;;0.50;0.50;;;;;;;9.25;100.00;95171.97;29395;250;64014;-69
2023/10/26 00:16:08;;;;;;;0.50;0.50;;;;;;;9.27;100.00;95168.94;29396;246;63005;-57
2023/10/26 00:16:39;;;;;;;0.50;0.50;;;;;;;9.28;100.00;95171.31;29396;243;63009;-69
2023/10/26 00:17:10;;;;;;;0.50;0.50;;;;;;;9.29;100.00;95172.09;29395;196;64005;-58
2023/10/26 00:17:42;;;;;;;0.50;0.50;;;;;;;9.28;100.00;95168.59;29396;247;63009;-69
2023/10/26 00:18:14;;;;;;;0.50;0.50;;;;;;;9.30;100.00;95163.66;29396;197;64009;-70
2023/10/26 00:18:46;;;;;;;0.50;0.50;;;;;;;9.26;100.00;95173.56;29397;214;63009;-58
2023/10/26 00:19:19;;;;;;;0.50;0.50;;;;;;;9.30;100.00;95169.06;29396;258;64009;-69
2023/10/26 00:19:52;;;;;;;0.50;0.50;;;;;;;9.26;100.00;95162.72;29397;244;63009;-58
2023/10/26 00:20:23;;;;;;;0.50;0.50;;;;;;;9.27;100.00;95169.72;29397;215;63004;-58
2023/10/26 00:20:59;;;;;;;0.50;0.50;;;;;;;9.30;100.00;95168.28;29397;237;63016;-69
2023/10/26 00:21:31;;;;;;;0.50;0.50;;;;;;;9.30;100.00;95169.06;29397;226;63018;-57
2023/10/26 00:22:03;;;;;;;0.50;0.50;;;;;;;9.34;100.00;95170.00;29396;263;64014;-74
2023/10/26 00:22:35;;;;;;;0.50;0.50;;;;;;;9.37;100.00;95169.34;29397;204;63005;-57
2023/10/26 00:23:07;;;;;;;0.50;0.50;;;;;;;9.46;100.00;95171.22;29397;202;63009;-57
2023/10/26 00:23:38;;;;;;;0.50;0.50;;;;;;;9.46;100.00;95172.00;29397;249;63005;-56
2023/10/26 00:24:09;;;;;;;0.50;0.50;;;;;;;9.45;100.00;95170.41;29397;198;63018;-57
2023/10/26 00:24:41;;;;;;;0.50;0.50;;;;;;;9.46;100.00;95172.00;29397;224;63010;-57
2023/10/26 00:25:12;;;;;;;0.50;0.50;;;;;;;9.39;100.00;95164.38;29397;235;63009;-57
2023/10/26 00:25:44;;;;;;;1.48;1.48;;;;;;;9.38;100.00;95168.22;29397;227;63004;-57
2023/10/26 00:26:16;;;;;;;0.50;0.50;;;;;;;9.36;100.00;95165.03;29397;214;63009;-69
2023/10/26 00:26:48;;;;;;;0.50;0.50;;;;;;;9.41;100.00;95169.47;29396;245;64009;-58
2023/10/26 00:27:19;;;;;;;0.50;0.50;;;;;;;9.46;100.00;95168.50;29397;211;63009;-58
2023/10/26 00:27:52;;;;;;;0.50;0.50;;;;;;;9.50;100.00;95166.72;29397;202;63004;-57
2023/10/26 00:28:23;;;;;;;0.50;0.50;;;;;;;9.50;100.00;95167.53;29397;208;63008;-57
2023/10/26 00:28:54;;;;;;;0.50;0.50;;;;;;;9.52;100.00;95157.16;29397;243;63004;-68
2023/10/26 00:29:26;;;;;;;0.50;0.50;;;;;;;9.53;100.00;95171.50;29397;244;63016;-58
2023/10/26 00:29:57;;;;;;;0.50;0.50;;;;;;;9.54;100.00;95162.25;29397;216;63005;-59
2023/10/26 00:30:28;;;;;;;0.50;0.50;;;;;;;9.55;100.00;95161.13;29396;256;64013;-58
2023/10/26 00:31:00;;;;;;;0.50;0.50;;;;;;;9.54;100.00;95162.25;29397;206;63005;-57
2023/10/26 00:31:35;;;;;;;0.50;0.50;;;;;;;9.50;100.00;95158.59;29396;222;63009;-69
2023/10/26 00:32:07;;;;;;;0.50;0.50;;;;;;;9.46;100.00;95165.78;29396;218;63005;-69
2023/10/26 00:32:40;;;;;;;0.50;0.50;;;;;;;9.47;100.00;95172.78;29396;196;63009;-70
2023/10/26 00:33:12;;;;;;;0.50;0.50;;;;;;;9.48;100.00;95166.25;29396;204;63004;-58
2023/10/26 00:33:43;;;;;;;0.50;0.50;;;;;;;9.49;100.00;95171.34;29396;253;63009;-57
2023/10/26 00:34:15;;;;;;;0.50;0.50;;;;;;;9.50;100.00;95164.03;29395;237;64009;-69
2023/10/26 00:34:46;;;;;;;0.50;0.50;;;;;;;9.48;100.00;95160.84;29396;242;63009;-57
2023/10/26 00:35:17;;;;;;;0.50;0.50;;;;;;;9.45;100.00;95164.19;29396;263;63008;-59
2023/10/26 00:35:52;;;;;;;0.50;0.50;;;;;;;9.44;100.00;95165.31;29396;261;63008;-59
2023/10/26 00:36:23;;;;;;;0.50;0.50;;;;;;;9.46;100.00;95168.50;29395;211;64005;-58
2023/10/26 00:36:54;;;;;;;0.50;0.50;;;;;;;9.43;100.00;95163.75;29396;222;63009;-58
2023/10/26 00:37:26;;;;;;;0.50;0.50;;;;;;;9.41;100.00;95170.28;29396;231;63005;-58
2023/10/26 00:37:58;;;;;;;0.50;0.50;;;;;;;9.40;100.00;95163.28;29396;214;63009;-58
2023/10/26 00:38:32;;;;;;;0.50;0.50;;;;;;;9.41;100.00;95164.84;29396;222;63005;-58
2023/10/26 00:39:03;;;;;;;0.50;0.50;;;;;;;9.44;100.00;95165.31;29396;239;63009;-68
2023/10/26 00:39:35;;;;;;;0.50;0.50;;;;;;;9.45;100.00;95165.00;29395;261;64009;-58
2023/10/26 00:40:08;;;;;;;0.50;0.50;;;;;;;9.45;100.00;95161.50;29395;204;64013;-70
2023/10/26 00:40:40;;;;;;;0.50;0.50;;;;;;;9.46;100.00;95165.78;29396;214;63004;-57
2023/10/26 00:41:11;;;;;;;0.50;0.50;;;;;;;9.44;100.00;95159.91;29395;217;64013;-68
2023/10/26 00:41:43;;;;;;;0.50;0.50;;;;;;;9.44;100.00;95163.41;29396;234;63006;-57
2023/10/26 00:42:14;;;;;;;0.50;0.50;;;;;;;9.49;100.00;95159.72;29396;234;63009;-71
2023/10/26 00:42:45;;;;;;;0.50;0.50;;;;;;;9.50;100.00;95172.16;29396;235;63004;-57
2023/10/26 00:43:21;;;;;;;0.50;0.50;;;;;;;9.50;100.00;95169.44;29396;198;63008;-72
2023/10/26 00:43:52;;;;;;;0.50;0.50;;;;;;;9.52;100.00;95164.50;29396;206;63005;-70
2023/10/26 00:44:24;;;;;;;0.50;0.50;;;;;;;9.53;100.00;95166.88;29396;235;63009;-67
2023/10/26 00:44:56;;;;;;;0.50;0.50;;;;;;;9.60;100.00;95163.66;29395;211;64009;-69
2023/10/26 00:45:31;;;;;;;0.50;0.50;;;;;;;9.62;100.00;95173.03;29396;209;63009;-59
2023/10/26 00:46:06;;;;;;;0.50;0.50;;;;;;;9.59;100.00;95167.47;29396;206;63005;-69
2023/10/26 00:46:37;;;;;;;0.50;0.50;;;;;;;9.56;100.00;95160.81;29396;202;63009;-57
2023/10/26 00:47:08;;;;;;;0.50;0.50;;;;;;;9.53;100.00;95157.94;29396;204;63005;-69
2023/10/26 00:47:40;;;;;;;0.50;0.50;;;;;;;9.48;100.00;95163.56;29396;217;63005;-69
2023/10/26 00:48:12;;;;;;;0.50;0.50;;;;;;;9.43;100.00;95163.75;29396;198;63017;-58
2023/10/26 00:48:43;;;;;;;0.50;0.50;;;;;;;9.44;100.00;95157.19;29396;196;63009;-58
2023/10/26 00:49:16;;;;;;;0.50;0.50;;;;;;;9.45;100.00;95164.19;29396;208;63004;-58
2023/10/26 00:49:48;;;;;;;0.50;0.50;;;;;;;9.46;100.00;95163.88;29396;236;63009;-69
2023/10/26 00:50:20;;;;;;;0.50;0.50;;;;;;;9.39;100.00;95161.69;29395;246;64008;-58
2023/10/26 00:50:52;;;;;;;0.50;0.50;;;;;;;9.37;100.00;95160.41;29396;238;63008;-58
2023/10/26 00:51:25;;;;;;;0.50;0.50;;;;;;;9.35;100.00;95166.19;29396;219;63005;-58
2023/10/26 00:52:01;;;;;;;0.50;0.50;;;;;;;9.37;100.00;95155.00;29395;202;64014;-57
2023/10/26 00:52:36;;;;;;;0.50;0.50;;;;;;;9.39;100.00;95160.87;29396;231;63015;-57
2023/10/26 00:53:08;;;;;;;0.50;0.50;;;;;;;9.41;100.00;95156.72;29396;219;63009;-57
2023/10/26 00:53:43;;;;;;;0.50;0.50;;;;;;;9.42;100.00;95154.81;29396;222;63005;-59
2023/10/26 00:54:20;;;;;;;0.50;0.50;;;;;;;9.36;100.00;95156.91;29396;253;63009;-59
2023/10/26 00:54:52;;;;;;;0.50;0.50;;;;;;;9.33;100.00;95152.19;29396;247;63000;-58
2023/10/26 00:55:25;;;;;;;0.50;0.50;;;;;;;9.34;100.00;95148.34;29396;231;63009;-69
2023/10/26 00:55:57;;;;;;;0.50;0.50;;;;;;;9.32;100.00;95150.59;29396;206;63004;-69
2023/10/26 00:56:30;;;;;;;0.50;0.50;;;;;;;9.32;100.00;95147.88;29396;198;63009;-69
2023/10/26 00:57:03;;;;;;;0.50;0.50;;;;;;;9.43;100.00;95152.91;29395;210;64009;-69
2023/10/26 00:57:36;;;;;;;0.75;0.75;;;;;;;9.47;100.00;95145.72;29396;215;63015;-70
2023/10/26 00:58:10;;;;;;;0.60;0.60;;;;;;;9.47;100.00;95156.56;29396;213;63007;-57
2023/10/26 00:58:42;;;;;;;0.50;0.50;;;;;;;9.44;100.00;95151.78;29396;250;63009;-68
2023/10/26 00:59:15;;;;;;;0.50;0.50;;;;;;;9.40;100.00;95149.72;29396;211;63005;-57
2023/10/26 00:59:48;;;;;;;0.50;0.50;;;;;;;9.34;100.00;95148.34;29395;242;64009;-69
2023/10/26 01:00:21;;;;;;;0.50;0.50;;;;;;;9.33;100.00;95151.38;29396;235;63008;-72
2023/10/26 01:00:53;;;;;;;0.50;0.50;;;;;;;9.32;100.00;95155.22;29395;272;64013;-58
2023/10/26 01:01:26;;;;;;;0.50;0.50;;;;;;;9.30;100.00;95152.84;29396;239;63005;-57
2023/10/26 01:02:00;;;;;;;0.47;0.47;;;;;;;9.30;100.00;95142.00;29395;235;64013;-58
2023/10/26 01:02:32;;;;;;;0.50;0.50;;;;;;;9.33;100.00;95144.06;29396;359;63005;-59
2023/10/26 01:03:05;;;;;;;0.50;0.50;;;;;;;9.45;100.00;95153.37;29396;273;63009;-57
2023/10/26 01:03:39;;;;;;;0.50;0.50;;;;;;;9.47;100.00;95153.84;29396;202;63004;-59
2023/10/26 01:04:14;;;;;;;0.50;0.50;;;;;;;9.43;100.00;95150.19;29396;196;63009;-58
2023/10/26 01:04:46;;;;;;;0.50;0.50;;;;;;;9.39;100.00;95155.47;29396;227;63004;-57
2023/10/26 01:05:17;;;;;;;0.50;0.50;;;;;;;9.39;100.00;95150.84;29396;204;63012;-58
2023/10/26 01:05:49;;;;;;;0.50;0.50;;;;;;;9.41;100.00;95151.31;29396;234;63004;-58
2023/10/26 01:06:20;;;;;;;0.50;0.50;;;;;;;9.45;100.00;95153.37;29395;216;64014;-59
2023/10/26 01:06:51;;;;;;;0.50;0.50;;;;;;;9.44;100.00;95151.78;29396;220;63005;-59
2023/10/26 01:07:23;;;;;;;0.50;0.50;;;;;;;9.41;100.00;95153.22;29395;204;64014;-70
2023/10/26 01:07:55;;;;;;;0.50;0.50;;;;;;;9.33;100.00;95152.19;29396;249;63005;-58
2023/10/26 01:08:27;;;;;;;0.50;0.50;;;;;;;9.33;100.00;95154.91;29396;215;63009;-70
2023/10/26 01:08:58;;;;;;;0.50;0.50;;;;;;;9.33;100.00;95160.31;29396;202;63005;-57
2023/10/26 01:09:30;;;;;;;0.50;0.50;;;;;;;9.31;100.00;95149.00;29395;202;64013;-70
2023/10/26 01:10:01;;;;;;;0.50;0.50;;;;;;;9.34;100.00;95152.97;29396;257;63005;-69
2023/10/26 01:10:35;;;;;;;0.50;0.50;;;;;;;9.35;100.00;95155.38;29396;245;63009;-57
2023/10/26 01:11:10;;;;;;;0.50;0.50;;;;;;;9.41;100.00;95159.44;29396;262;63004;-57
2023/10/26 01:11:42;;;;;;;0.50;0.50;;;;;;;9.43;100.00;95155.63;29396;204;63009;-58
2023/10/26 01:12:14;;;;;;;0.50;0.50;;;;;;;9.38;100.00;95153.87;29396;223;63004;-69
2023/10/26 01:12:46;;;;;;;0.50;0.50;;;;;;;9.31;100.00;95159.84;29396;218;63022;-57
2023/10/26 01:13:18;;;;;;;0.50;0.50;;;;;;;9.31;100.00;95154.41;29395;230;64004;-57
2023/10/26 01:13:51;;;;;;;0.50;0.50;;;;;;;9.35;100.00;95159.97;29395;388;64014;-57
2023/10/26 01:14:23;;;;;;;0.50;0.50;;;;;;;9.38;100.00;95159.31;29396;220;63012;-57
2023/10/26 01:14:55;;;;;;;0.50;0.50;;;;;;;9.46;100.00;95157.66;29396;221;63009;-57
2023/10/26 01:15:27;;;;;;;0.50;0.50;;;;;;;9.47;100.00;95162.75;29396;198;63005;-57
2023/10/26 01:15:59;;;;;;;0.50;0.50;;;;;;;9.45;100.00;95159.59;29396;218;63009;-57
2023/10/26 01:16:31;;;;;;;0.50;0.50;;;;;;;9.41;100.00;95156.72;29396;206;63005;-57
2023/10/26 01:17:03;;;;;;;0.50;0.50;;;;;;;9.33;100.00;95154.91;29396;214;63009;-70
2023/10/26 01:17:35;;;;;;;0.50;0.50;;;;;;;9.26;100.00;95157.31;29396;225;63005;-70
2023/10/26 01:18:06;;;;;;;0.50;0.50;;;;;;;9.26;100.00;95149.19;29396;262;63009;-58
2023/10/26 01:18:37;;;;;;;0.50;0.50;;;;;;;9.22;100.00;95159.06;29396;222;63008;-70
2023/10/26 01:19:09;;;;;;;0.50;0.50;;;;;;;9.18;100.00;95155.44;29395;231;64013;-57
2023/10/26 01:19:43;;;;;;;0.50;0.50;;;;;;;9.14;100.00;95159.13;29396;214;63004;-70
2023/10/26 01:20:21;;;;;;;0.50;0.50;;;;;;;9.18;100.00;95150.03;29396;241;63009;-57
2023/10/26 01:20:54;;;;;;;0.50;0.50;;;;;;;9.24;100.00;95156.84;29396;219;63004;-58
2023/10/26 01:21:29;;;;;;;0.50;0.50;;;;;;;9.27;100.00;95153.50;29397;240;63020;-57
2023/10/26 01:22:01;;;;;;;0.50;0.50;;;;;;;9.31;100.00;95154.41;29397;213;63005;-59
2023/10/26 01:22:36;;;;;;;0.50;0.50;;;;;;;9.31;100.00;95159.84;29396;253;64009;-69
2023/10/26 01:23:08;;;;;;;0.50;0.50;;;;;;;9.26;100.00;95159.22;29397;230;63005;-58
2023/10/26 01:23:43;;;;;;;0.50;0.50;;;;;;;9.24;100.00;95156.84;29397;237;63009;-70
2023/10/26 01:24:14;;;;;;;0.50;0.50;;;;;;;9.26;100.00;95160.03;29394;220;64009;-58
2023/10/26 01:24:45;;;;;;;0.50;0.50;;;;;;;9.26;100.00;95157.31;29397;223;63009;-57
2023/10/26 01:25:19;;;;;;;0.50;0.50;;;;;;;9.29;100.00;95164.00;29395;250;63005;-58
2023/10/26 01:25:54;;;;;;;0.50;0.50;;;;;;;9.30;100.00;95163.66;29396;227;63009;-58
2023/10/26 01:26:26;;;;;;;0.50;0.50;;;;;;;9.30;100.00;95169.06;29395;252;63004;-57
2023/10/26 01:26:57;;;;;;;0.50;0.50;;;;;;;9.28;100.00;95163.19;29393;251;64032;-57
2023/10/26 01:27:29;;;;;;;0.50;0.50;;;;;;;9.29;100.00;95162.06;29395;222;63004;-57
2023/10/26 01:28:00;;;;;;;0.50;0.50;;;;;;;9.27;100.00;95169.72;29393;245;64013;-57
2023/10/26 01:28:31;;;;;;;0.50;0.50;;;;;;;9.23;100.00;95166.06;29395;257;63004;-71
2023/10/26 01:29:03;;;;;;;0.50;0.50;;;;;;;9.21;100.00;95160.19;29395;200;63009;-58
2023/10/26 01:29:35;;;;;;;0.50;0.50;;;;;;;9.23;100.00;95162.56;29395;213;63004;-68
2023/10/26 01:30:08;;;;;;;0.50;0.50;;;;;;;9.25;100.00;95163.06;29395;197;63027;-58
2023/10/26 01:30:41;;;;;;;0.50;0.50;;;;;;;9.23;100.00;95163.38;29395;229;63005;-70
2023/10/26 01:31:19;;;;;;;0.50;0.50;;;;;;;9.22;100.00;95169.91;29395;224;63009;-69
2023/10/26 01:31:50;;;;;;;0.50;0.50;;;;;;;9.18;100.00;95176.28;29395;224;63005;-57
2023/10/26 01:32:26;;;;;;;0.50;0.50;;;;;;;9.15;100.00;95172.31;29395;208;63009;-68
2023/10/26 01:32:57;;;;;;;0.50;0.50;;;;;;;9.18;100.00;95163.56;29393;245;64009;-69
2023/10/26 01:33:32;;;;;;;0.50;0.50;;;;;;;9.21;100.00;95159.41;29396;238;63009;-58
2023/10/26 01:34:04;;;;;;;0.50;0.50;;;;;;;9.22;100.00;95164.50;29393;228;64009;-69
2023/10/26 01:34:35;;;;;;;0.50;0.50;;;;;;;9.23;100.00;95166.06;29395;197;63009;-70
2023/10/26 01:35:08;;;;;;;0.50;0.50;;;;;;;9.23;100.00;95168.00;29393;270;64008;-68
2023/10/26 01:35:42;;;;;;;0.50;0.50;;;;;;;9.22;100.00;95167.19;29395;221;63008;-57
2023/10/26 01:36:14;;;;;;;0.50;0.50;;;;;;;9.24;100.00;95170.38;29395;207;63009;-69
2023/10/26 01:36:45;;;;;;;0.50;0.50;;;;;;;9.25;100.00;95166.56;29395;231;63017;-58
2023/10/26 01:37:16;;;;;;;0.50;0.50;;;;;;;9.23;100.00;95162.56;29395;216;63005;-69
2023/10/26 01:37:48;;;;;;;0.50;0.50;;;;;;;9.21;100.00;95165.59;29395;213;63009;-69
2023/10/26 01:38:22;;;;;;;0.50;0.50;;;;;;;9.22;100.00;95169.91;29395;206;63005;-58
2023/10/26 01:38:56;;;;;;;0.50;0.50;;;;;;;9.19;100.00;95167.84;29393;209;64013;-70
2023/10/26 01:39:28;;;;;;;0.50;0.50;;;;;;;9.20;100.00;95168.63;29395;210;63005;-69
2023/10/26 01:40:01;;;;;;;0.50;0.50;;;;;;;9.18;100.00;95168.97;29395;202;63004;-70
2023/10/26 01:40:33;;;;;;;0.50;0.50;;;;;;;9.14;100.00;95162.63;29395;236;63004;-58
2023/10/26 01:41:05;;;;;;;0.50;0.50;;;;;;;9.10;100.00;95169.78;29395;248;63009;-58
2023/10/26 01:41:36;;;;;;;0.50;0.50;;;;;;;9.09;100.00;95170.91;29395;268;63017;-59
2023/10/26 01:42:09;;;;;;;0.50;0.50;;;;;;;9.08;100.00;95166.63;29395;267;63009;-57
2023/10/26 01:42:41;;;;;;;0.50;0.50;;;;;;;9.11;100.00;95160.56;29394;197;64004;-69
2023/10/26 01:43:14;;;;;;;0.50;0.50;;;;;;;9.10;100.00;95163.59;29395;197;63009;-59
2023/10/26 01:43:46;;;;;;;0.50;0.50;;;;;;;9.10;100.00;95160.87;29395;215;63009;-71
2023/10/26 01:44:20;;;;;;;0.50;0.50;;;;;;;9.10;100.00;95164.38;29393;216;64014;-58
2023/10/26 01:44:52;;;;;;;0.50;0.50;;;;;;;9.07;100.00;95159.63;29395;202;63005;-69
2023/10/26 01:45:23;;;;;;;0.50;0.50;;;;;;;9.08;100.00;95166.63;29395;253;63009;-58
2023/10/26 01:45:54;;;;;;;0.50;0.50;;;;;;;9.09;100.00;95162.78;29395;226;63005;-59
2023/10/26 01:46:25;;;;;;;0.50;0.50;;;;;;;9.08;100.00;95166.63;29395;218;63009;-70
2023/10/26 01:46:56;;;;;;;0.50;0.50;;;;;;;9.08;100.00;95162.00;29395;198;63005;-68
2023/10/26 01:47:28;;;;;;;0.50;0.50;;;;;;;9.09;100.00;95165.50;29395;228;63009;-58
2023/10/26 01:48:00;;;;;;;0.50;0.50;;;;;;;9.10;100.00;95167.09;29395;203;63004;-71
2023/10/26 01:48:33;;;;;;;0.50;0.50;;;;;;;9.09;100.00;95162.78;29395;223;63009;-58
2023/10/26 01:49:05;;;;;;;0.50;0.50;;;;;;;9.08;100.00;95161.19;29395;202;63004;-70
2023/10/26 01:49:37;;;;;;;0.50;0.50;;;;;;;9.05;100.00;95162.66;29393;222;64013;-70
2023/10/26 01:50:09;;;;;;;0.50;0.50;;;;;;;9.04;100.00;95168.37;29395;222;63004;-58
2023/10/26 01:50:40;;;;;;;0.50;0.50;;;;;;;9.04;100.00;95158.34;29395;215;63009;-57
2023/10/26 01:51:12;;;;;;;0.50;0.50;;;;;;;9.05;100.00;95161.84;29395;232;63005;-58
2023/10/26 01:51:43;;;;;;;0.50;0.50;;;;;;;9.05;100.00;95162.66;29395;258;63009;-70
2023/10/26 01:52:14;;;;;;;0.50;0.50;;;;;;;9.05;100.00;95167.25;29393;222;64009;-69
2023/10/26 01:52:45;;;;;;;0.50;0.50;;;;;;;9.06;100.00;95163.44;29395;226;63009;-70
2023/10/26 01:53:23;;;;;;;0.50;0.50;;;;;;;9.07;100.00;95165.03;29394;213;63005;-57
2023/10/26 01:53:55;;;;;;;0.50;0.50;;;;;;;9.09;100.00;95157.38;29394;243;64009;-58
2023/10/26 01:54:26;;;;;;;0.50;0.50;;;;;;;9.08;100.00;95161.19;29395;269;63005;-57
2023/10/26 01:54:57;;;;;;;0.50;0.50;;;;;;;9.03;100.00;95164.09;29393;250;64013;-58
2023/10/26 01:55:31;;;;;;;0.50;0.50;;;;;;;9.02;100.00;95157.09;29395;290;63004;-58
2023/10/26 01:56:04;;;;;;;0.50;0.50;;;;;;;9.00;100.00;95164.75;29395;203;63009;-58
2023/10/26 01:56:36;;;;;;;0.50;0.50;;;;;;;9.02;100.00;95162.50;29395;208;63004;-68
2023/10/26 01:57:08;;;;;;;0.50;0.50;;;;;;;9.05;100.00;95161.84;29395;227;63009;-57
2023/10/26 01:57:39;;;;;;;0.50;0.50;;;;;;;9.07;100.00;95159.63;29395;235;63004;-58
2023/10/26 01:58:10;;;;;;;0.50;0.50;;;;;;;9.07;100.00;95154.19;29395;235;63009;-68
2023/10/26 01:58:45;;;;;;;0.50;0.50;;;;;;;9.07;100.00;95160.41;29395;280;63005;-68
2023/10/26 01:59:16;;;;;;;0.50;0.50;;;;;;;9.08;100.00;95155.78;29395;226;63009;-69
2023/10/26 01:59:47;;;;;;;0.50;0.50;;;;;;;9.08;100.00;95163.91;29394;251;64009;-69
2023/10/26 02:00:19;;;;;;;0.50;0.50;;;;;;;9.08;100.00;95161.19;29395;213;63009;-68
2023/10/26 02:00:50;;;;;;;0.50;0.50;;;;;;;9.06;100.00;95158.03;29395;214;63005;-68
2023/10/26 02:01:21;;;;;;;0.50;0.50;;;;;;;9.05;100.00;95161.84;29395;220;63009;-69
2023/10/26 02:01:52;;;;;;;0.50;0.50;;;;;;;9.02;100.00;95160.59;29394;212;64009;-70
2023/10/26 02:02:26;;;;;;;0.50;0.50;;;;;;;9.02;100.00;95162.50;29395;241;63009;-69
2023/10/26 02:02:58;;;;;;;0.50;0.50;;;;;;;9.02;100.00;95159.78;29394;222;64004;-68
2023/10/26 02:03:29;;;;;;;0.50;0.50;;;;;;;8.99;100.00;95161.25;29395;227;63009;-69
2023/10/26 02:04:02;;;;;;;0.50;0.50;;;;;;;9.00;100.00;95159.34;29395;254;63007;-69
2023/10/26 02:04:33;;;;;;;0.50;0.50;;;;;;;8.99;100.00;95160.47;29395;251;63009;-66
2023/10/26 02:05:05;;;;;;;0.50;0.50;;;;;;;9.01;100.00;95155.50;29395;289;63000;-67
2023/10/26 02:05:37;;;;;;;0.50;0.50;;;;;;;9.01;100.00;95158.19;29394;198;64013;-68
2023/10/26 02:06:09;;;;;;;0.50;0.50;;;;;;;9.00;100.00;95156.66;29395;198;63005;-70
2023/10/26 02:06:44;;;;;;;0.50;0.50;;;;;;;8.99;100.00;95157.75;29395;205;63009;-67
2023/10/26 02:07:15;;;;;;;0.50;0.50;;;;;;;9.02;100.00;95154.37;29395;197;63005;-66
2023/10/26 02:07:46;;;;;;;0.50;0.50;;;;;;;9.01;100.00;95144.69;29394;222;64009;-67
2023/10/26 02:08:18;;;;;;;0.50;0.50;;;;;;;9.00;100.00;95153.94;29395;236;63005;-68
2023/10/26 02:08:49;;;;;;;0.50;0.50;;;;;;;9.00;100.00;95160.16;29395;219;63009;-58
2023/10/26 02:09:21;;;;;;;0.50;0.50;;;;;;;8.98;100.00;95162.38;29395;219;63005;-68
2023/10/26 02:09:52;;;;;;;0.50;0.50;;;;;;;8.96;100.00;95153.78;29395;433;63005;-68
2023/10/26 02:10:29;;;;;;;0.50;0.50;;;;;;;8.96;100.00;95158.41;29394;219;64009;-68
2023/10/26 02:11:00;;;;;;;0.50;0.50;;;;;;;8.93;100.00;95148.22;29394;215;64013;-68
2023/10/26 02:11:31;;;;;;;0.50;0.50;;;;;;;8.90;100.00;95152.38;29394;250;64009;-69
2023/10/26 02:12:05;;;;;;;0.50;0.50;;;;;;;8.88;100.00;95156.53;29395;243;63009;-57
2023/10/26 02:12:39;;;;;;;0.50;0.50;;;;;;;8.86;100.00;95158.75;29395;257;63004;-57
2023/10/26 02:13:12;;;;;;;0.50;0.50;;;;;;;8.84;100.00;95155.56;29395;251;63008;-57
2023/10/26 02:13:43;;;;;;;0.50;0.50;;;;;;;8.89;100.00;95152.69;29395;197;63005;-58
2023/10/26 02:14:15;;;;;;;0.47;0.47;;;;;;;8.93;100.00;95156.34;29395;257;63009;-70
2023/10/26 02:14:47;;;;;;;0.50;0.50;;;;;;;8.94;100.00;95163.34;29395;269;63005;-70
2023/10/26 02:15:19;;;;;;;0.50;0.50;;;;;;;8.93;100.00;95159.84;29394;213;64013;-70
2023/10/26 02:15:50;;;;;;;0.50;0.50;;;;;;;8.94;100.00;95156.03;29395;199;63005;-57
2023/10/26 02:16:22;;;;;;;0.50;0.50;;;;;;;8.93;100.00;95159.84;29395;218;63009;-59
2023/10/26 02:16:53;;;;;;;0.50;0.50;;;;;;;8.92;100.00;95162.88;29395;204;63005;-57
2023/10/26 02:17:24;;;;;;;0.50;0.50;;;;;;;8.89;100.00;95166.22;29394;226;64013;-57
2023/10/26 02:17:56;;;;;;;0.50;0.50;;;;;;;8.87;100.00;95160.34;29395;220;63004;-58
2023/10/26 02:18:28;;;;;;;0.50;0.50;;;;;;;8.84;100.00;95161.78;29395;207;63009;-57
2023/10/26 02:18:59;;;;;;;0.50;0.50;;;;;;;8.85;100.00;95159.88;29395;202;63009;-57
2023/10/26 02:19:31;;;;;;;0.50;0.50;;;;;;;8.85;100.00;95162.56;29395;202;63009;-58
2023/10/26 02:20:03;;;;;;;0.50;0.50;;;;;;;8.81;100.00;95164.34;29394;219;64008;-57
2023/10/26 02:20:34;;;;;;;0.50;0.50;;;;;;;8.79;100.00;95163.88;29395;237;63008;-69
2023/10/26 02:21:06;;;;;;;0.50;0.50;;;;;;;8.78;100.00;95159.56;29395;244;63005;-57
2023/10/26 02:21:38;;;;;;;0.50;0.50;;;;;;;8.77;100.00;95171.50;29395;256;63009;-70
2023/10/26 02:22:09;;;;;;;0.50;0.50;;;;;;;8.78;100.00;95173.09;29395;248;63005;-57
2023/10/26 02:22:41;;;;;;;0.50;0.50;;;;;;;8.76;100.00;95170.72;29395;212;63009;-70
2023/10/26 02:23:13;;;;;;;0.50;0.50;;;;;;;8.78;100.00;95163.06;29395;204;63009;-70
2023/10/26 02:23:46;;;;;;;0.50;0.50;;;;;;;8.81;100.00;95165.12;29395;256;63009;-70
2023/10/26 02:24:18;;;;;;;0.50;0.50;;;;;;;8.83;100.00;95170.22;29395;239;63005;-58
2023/10/26 02:24:50;;;;;;;0.50;0.50;;;;;;;8.83;100.00;95165.59;29395;204;63009;-57
2023/10/26 02:25:22;;;;;;;0.50;0.50;;;;;;;8.83;100.00;95164.81;29394;239;64009;-57
2023/10/26 02:25:54;;;;;;;0.50;0.50;;;;;;;8.83;100.00;95170.22;29394;312;64013;-57
2023/10/26 02:26:25;;;;;;;0.50;0.50;;;;;;;8.81;100.00;95167.03;29395;197;63004;-58
2023/10/26 02:26:56;;;;;;;0.50;0.50;;;;;;;8.82;100.00;95168.63;29395;220;63009;-57
2023/10/26 02:27:28;;;;;;;0.50;0.50;;;;;;;8.83;100.00;95160.19;29395;208;63004;-58
2023/10/26 02:27:59;;;;;;;0.50;0.50;;;;;;;8.81;100.00;95162.44;29395;284;63008;-57
2023/10/26 02:28:34;;;;;;;0.50;0.50;;;;;;;8.81;100.00;95167.84;29395;238;63005;-58
2023/10/26 02:29:06;;;;;;;0.50;0.50;;;;;;;8.80;100.00;95168.94;29395;229;63009;-59
2023/10/26 02:29:40;;;;;;;0.50;0.50;;;;;;;8.78;100.00;95159.56;29395;202;63005;-57
2023/10/26 02:30:12;;;;;;;0.50;0.50;;;;;;;8.77;100.00;95160.69;29395;202;63009;-59
2023/10/26 02:30:44;;;;;;;0.50;0.50;;;;;;;8.76;100.00;95162.59;29394;210;64009;-58
2023/10/26 02:31:16;;;;;;;0.50;0.50;;;;;;;8.76;100.00;95164.50;29395;222;63009;-58
2023/10/26 02:31:51;;;;;;;0.50;0.50;;;;;;;8.78;100.00;95162.28;29395;227;63016;-69
2023/10/26 02:32:22;;;;;;;0.50;0.50;;;;;;;8.78;100.00;95168.47;29395;227;63009;-72
2023/10/26 02:32:53;;;;;;;0.50;0.50;;;;;;;8.80;100.00;95165.44;29395;231;63004;-77
2023/10/26 02:33:25;;;;;;;0.50;0.50;;;;;;;8.88;100.00;95161.94;29395;225;63009;-57